Time;durP1;ratioP1;P1;durP2;ratioP2;P2;SDS_P1;SDS_P2;PMS_P1;PMS_P2;Temp;Humidity;BMP_temperature;BMP_pressure;BME280_temperature;BME280_humidity;BME280_pressure;Samples;Min_cycle;Max_cycle;Signal;HPM_P1;HPM_P2
2022/07/27 00:01:16;;;;;;;1999.90;999.90;;;16.20;99.90;;;;;;5092546;28;20198;-59
2022/07/27 00:03:44;;;;;;;1999.90;999.90;;;16.20;99.90;;;;;;5092199;28;20200;-59
2022/07/27 00:06:12;;;;;;;1999.90;999.90;;;16.20;99.90;;;;;;5092136;28;20668;-59
2022/07/27 00:08:39;;;;;;;1999.90;999.90;;;16.20;99.90;;;;;;5092250;28;20217;-59
2022/07/27 00:11:07;;;;;;;1999.90;999.90;;;16.20;99.90;;;;;;5092149;28;20194;-59
2022/07/27 00:13:36;;;;;;;1999.90;999.90;;;16.20;99.90;;;;;;5092071;28;20697;-59
2022/07/27 00:16:03;;;;;;;1999.90;999.90;;;16.30;99.90;;;;;;5092086;28;20726;-59
2022/07/27 00:18:31;;;;;;;1999.90;999.90;;;16.20;99.90;;;;;;5092296;28;20577;-59
2022/07/27 00:20:58;;;;;;;1999.90;999.90;;;16.20;99.90;;;;;;5092244;28;20198;-59
2022/07/27 00:23:25;;;;;;;1999.90;999.90;;;16.10;99.90;;;;;;5092276;28;20566;-59
2022/07/27 00:25:52;;;;;;;1999.90;999.90;;;16.00;99.90;;;;;;5092266;28;20202;-59
2022/07/27 00:28:19;;;;;;;1999.90;999.90;;;16.00;99.90;;;;;;5092297;28;20209;-59
2022/07/27 00:30:48;;;;;;;1999.90;999.90;;;15.80;99.90;;;;;;5092278;28;20188;-59
2022/07/27 00:33:15;;;;;;;1999.90;999.90;;;15.80;99.90;;;;;;5091848;28;20194;-59
2022/07/27 00:35:42;;;;;;;1999.90;999.90;;;15.80;99.90;;;;;;5092249;28;20198;-59
2022/07/27 00:38:09;;;;;;;1999.90;999.90;;;15.80;99.90;;;;;;5095236;28;20847;-59
2022/07/27 00:40:36;;;;;;;1999.90;999.90;;;15.70;99.90;;;;;;5095613;28;20199;-59
2022/07/27 00:43:03;;;;;;;1999.90;999.90;;;15.70;99.90;;;;;;5095671;28;20676;-59
2022/07/27 00:45:30;;;;;;;1999.90;999.90;;;15.70;99.90;;;;;;5095534;28;20691;-59
2022/07/27 00:47:59;;;;;;;1999.90;999.90;;;15.50;99.90;;;;;;5095895;28;20211;-59
2022/07/27 00:50:26;;;;;;;1999.90;999.90;;;15.50;99.90;;;;;;5095787;28;20195;-59
2022/07/27 00:52:54;;;;;;;1999.90;999.90;;;15.40;99.90;;;;;;5095710;28;20216;-59
2022/07/27 00:55:21;;;;;;;1999.90;999.90;;;15.40;99.90;;;;;;5095386;28;20194;-59
2022/07/27 00:57:48;;;;;;;1999.90;999.90;;;15.40;99.90;;;;;;5095448;28;20668;-59
2022/07/27 01:00:16;;;;;;;1999.90;999.90;;;15.30;99.90;;;;;;5095235;28;20232;-59
2022/07/27 01:02:43;;;;;;;1999.90;999.90;;;15.30;99.90;;;;;;5095583;28;20200;-59
2022/07/27 01:05:12;;;;;;;1999.90;999.90;;;15.20;99.90;;;;;;5095235;28;20563;-58
2022/07/27 01:07:40;;;;;;;1999.90;999.90;;;15.10;99.90;;;;;;5095475;28;20202;-58
2022/07/27 01:10:08;;;;;;;1999.90;999.90;;;15.10;99.90;;;;;;5095382;28;20210;-59
2022/07/27 01:12:35;;;;;;;1999.90;999.90;;;15.10;99.90;;;;;;5095368;28;20206;-59
2022/07/27 01:15:02;;;;;;;1999.90;999.90;;;15.10;99.90;;;;;;5095054;28;20558;-59
2022/07/27 01:17:30;;;;;;;1999.90;999.90;;;15.10;99.90;;;;;;5095305;28;20558;-59
2022/07/27 01:19:57;;;;;;;1999.90;999.90;;;15.10;99.90;;;;;;5095195;28;20220;-58
2022/07/27 01:22:26;;;;;;;1999.90;999.90;;;15.00;99.90;;;;;;5094787;28;20199;-59
2022/07/27 01:24:53;;;;;;;1999.90;999.90;;;14.80;99.90;;;;;;5095199;28;20187;-59
2022/07/27 01:27:21;;;;;;;1999.90;999.90;;;14.70;99.90;;;;;;5095131;28;20195;-59
2022/07/27 01:29:48;;;;;;;1999.90;999.90;;;14.80;99.90;;;;;;5094782;28;20667;-59
2022/07/27 01:32:15;;;;;;;1999.90;999.90;;;14.70;99.90;;;;;;5094642;28;20697;-59
2022/07/27 01:34:43;;;;;;;1999.90;999.90;;;14.60;99.90;;;;;;5094681;28;20667;-59
2022/07/27 01:37:10;;;;;;;1999.90;999.90;;;14.60;99.90;;;;;;5094628;28;20222;-59
2022/07/27 01:39:39;;;;;;;1999.90;999.90;;;14.50;99.90;;;;;;5094178;28;20332;-58
2022/07/27 01:42:07;;;;;;;1999.90;999.90;;;14.40;99.90;;;;;;5094855;28;20206;-59
2022/07/27 01:44:34;;;;;;;1999.90;999.90;;;14.40;99.90;;;;;;5094462;28;20667;-59
2022/07/27 01:47:01;;;;;;;1999.90;999.90;;;14.40;99.90;;;;;;5094241;28;20201;-59
2022/07/27 01:49:28;;;;;;;1999.90;999.90;;;14.30;99.90;;;;;;5094651;28;20195;-58
2022/07/27 01:51:55;;;;;;;1999.90;999.90;;;14.30;99.90;;;;;;5094555;28;20555;-59
2022/07/27 01:54:22;;;;;;;1999.90;999.90;;;14.20;99.90;;;;;;5094591;28;20190;-59
2022/07/27 01:56:51;;;;;;;1999.90;999.90;;;14.30;99.90;;;;;;5094460;28;20198;-59
2022/07/27 01:59:18;;;;;;;1999.90;999.90;;;14.20;99.90;;;;;;5094147;28;20635;-59
2022/07/27 02:01:46;;;;;;;1999.90;999.90;;;14.20;99.90;;;;;;5094464;28;20194;-59
2022/07/27 02:04:13;;;;;;;1999.90;999.90;;;14.20;99.90;;;;;;5094138;28;20195;-58
2022/07/27 02:06:40;;;;;;;1999.90;999.90;;;14.20;99.90;;;;;;5094340;28;20194;-59
2022/07/27 02:09:07;;;;;;;1999.90;999.90;;;14.10;99.90;;;;;;5094122;28;20199;-59
2022/07/27 02:14:20;;;;;;;1999.90;999.90;;;14.00;99.90;;;;;;5094223;28;20178;-59
2022/07/27 02:16:47;;;;;;;1999.90;999.90;;;14.00;99.90;;;;;;5093765;28;20206;-59
2022/07/27 02:19:14;;;;;;;1999.90;999.90;;;14.00;99.90;;;;;;5094055;28;20225;-59
2022/07/27 02:21:41;;;;;;;1999.90;999.90;;;14.00;99.90;;;;;;5093945;28;20213;-59
2022/07/27 02:24:08;;;;;;;1999.90;999.90;;;14.00;99.90;;;;;;5094049;28;20194;-59
2022/07/27 02:26:35;;;;;;;1999.90;999.90;;;13.90;99.90;;;;;;5093975;28;20204;-59
2022/07/27 02:29:04;;;;;;;1999.90;999.90;;;13.90;99.90;;;;;;5093925;28;20204;-59
2022/07/27 02:31:32;;;;;;;1999.90;999.90;;;13.80;99.90;;;;;;5093495;28;20327;-59
2022/07/27 02:33:59;;;;;;;1999.90;999.90;;;13.80;99.90;;;;;;5093817;28;20199;-59
2022/07/27 02:36:27;;;;;;;1999.90;999.90;;;13.80;99.90;;;;;;5093437;28;20216;-59
2022/07/27 02:38:55;;;;;;;1999.90;999.90;;;13.70;99.90;;;;;;5093075;28;20609;-59
2022/07/27 02:41:22;;;;;;;1999.90;999.90;;;13.70;99.90;;;;;;5093632;28;20201;-59
2022/07/27 02:43:49;;;;;;;1999.90;999.90;;;13.60;99.90;;;;;;5093619;28;20201;-59
2022/07/27 02:46:16;;;;;;;1999.90;999.90;;;13.60;99.90;;;;;;5093561;28;20223;-60
2022/07/27 02:48:44;;;;;;;1999.90;999.90;;;13.60;99.90;;;;;;5093309;28;20208;-59
2022/07/27 02:51:13;;;;;;;1999.90;999.90;;;13.60;99.90;;;;;;5093081;28;20201;-58
2022/07/27 02:53:41;;;;;;;1999.90;999.90;;;13.50;99.90;;;;;;5093426;28;20201;-59
2022/07/27 02:56:08;;;;;;;1999.90;999.90;;;13.40;99.90;;;;;;5093395;28;20202;-59
2022/07/27 02:58:35;;;;;;;1999.90;999.90;;;13.50;99.90;;;;;;5092531;28;20213;-59
2022/07/27 03:01:02;;;;;;;1999.90;999.90;;;13.40;99.90;;;;;;5092897;28;20220;-59
2022/07/27 03:03:29;;;;;;;1999.90;999.90;;;13.50;99.90;;;;;;5092976;28;20224;-58
2022/07/27 03:05:57;;;;;;;1999.90;999.90;;;13.40;99.90;;;;;;5092984;28;20682;-59
2022/07/27 03:08:24;;;;;;;1999.90;999.90;;;13.30;99.90;;;;;;5093096;28;20262;-59
2022/07/27 03:10:51;;;;;;;1999.90;999.90;;;13.30;99.90;;;;;;5092918;28;20609;-59
2022/07/27 03:13:18;;;;;;;1999.90;999.90;;;13.30;99.90;;;;;;5092921;28;20194;-59
2022/07/27 03:15:45;;;;;;;1999.90;999.90;;;13.20;99.90;;;;;;5092759;28;20277;-58
2022/07/27 03:18:12;;;;;;;1999.90;999.90;;;13.20;99.90;;;;;;5093117;28;20200;-61
2022/07/27 03:20:39;;;;;;;1999.90;999.90;;;13.10;99.90;;;;;;5092656;28;20577;-59
2022/07/27 03:23:08;;;;;;;1999.90;999.90;;;13.10;99.90;;;;;;5092599;28;20202;-59
2022/07/27 03:25:35;;;;;;;1999.90;999.90;;;13.10;99.90;;;;;;5092898;28;20197;-59
2022/07/27 03:28:02;;;;;;;1999.90;999.90;;;13.10;99.90;;;;;;5092955;28;20205;-58
2022/07/27 03:30:29;;;;;;;1999.90;999.90;;;13.10;99.90;;;;;;5092520;28;20530;-58
2022/07/27 03:32:56;;;;;;;1999.90;999.90;;;13.10;99.90;;;;;;5092515;28;20206;-58
2022/07/27 03:35:24;;;;;;;1999.90;999.90;;;13.10;99.90;;;;;;5092583;28;20686;-58
2022/07/27 03:37:51;;;;;;;1999.90;999.90;;;12.90;99.90;;;;;;5092627;28;20230;-59
2022/07/27 03:40:19;;;;;;;1999.90;999.90;;;12.90;99.90;;;;;;5092563;28;20214;-58
2022/07/27 03:42:46;;;;;;;1999.90;999.90;;;12.80;99.90;;;;;;5092793;28;20202;-59
2022/07/27 03:45:13;;;;;;;1999.90;999.90;;;12.80;99.90;;;;;;5092756;28;20194;-59
2022/07/27 03:47:41;;;;;;;1999.90;999.90;;;12.80;99.90;;;;;;5092815;28;20209;-59
2022/07/27 03:50:08;;;;;;;1999.90;999.90;;;12.80;99.90;;;;;;5092815;28;20189;-63
2022/07/27 03:52:35;;;;;;;1999.90;999.90;;;12.70;99.90;;;;;;5092883;28;20212;-59
2022/07/27 03:55:02;;;;;;;1999.90;999.90;;;12.70;99.90;;;;;;5092881;28;20695;-59
2022/07/27 03:57:31;;;;;;;1999.90;999.90;;;12.70;99.90;;;;;;5092309;28;20228;-58
2022/07/27 03:59:58;;;;;;;1999.90;999.90;;;12.70;99.90;;;;;;5092458;28;20213;-60
2022/07/27 04:02:25;;;;;;;1999.90;999.90;;;12.70;99.90;;;;;;5092466;28;20186;-58
2022/07/27 04:04:52;;;;;;;1999.90;999.90;;;12.70;99.90;;;;;;5092565;28;20210;-59
2022/07/27 04:07:19;;;;;;;1999.90;999.90;;;12.70;99.90;;;;;;5092516;28;20257;-59
2022/07/27 04:09:46;;;;;;;1999.90;999.90;;;12.70;99.90;;;;;;5092362;28;20198;-59
2022/07/27 04:12:13;;;;;;;1999.90;999.90;;;12.60;99.90;;;;;;5096191;28;20197;-59
2022/07/27 04:14:42;;;;;;;1999.90;999.90;;;12.60;99.90;;;;;;5096210;28;20884;-58
2022/07/27 04:17:09;;;;;;;1999.90;999.90;;;12.60;99.90;;;;;;5096470;28;20208;-59
2022/07/27 04:19:36;;;;;;;1999.90;999.90;;;12.60;99.90;;;;;;5095984;28;20194;-58
2022/07/27 04:22:04;;;;;;;1999.90;999.90;;;12.60;99.90;;;;;;5096016;28;20662;-59
2022/07/27 04:24:31;;;;;;;1999.90;999.90;;;12.60;99.90;;;;;;5096331;28;20201;-59
2022/07/27 04:26:58;;;;;;;1999.90;999.90;;;12.70;99.90;;;;;;5095824;28;20200;-58
2022/07/27 04:29:25;;;;;;;1999.90;999.90;;;12.70;99.90;;;;;;5095699;28;20255;-58
2022/07/27 04:31:53;;;;;;;1999.90;999.90;;;12.70;99.90;;;;;;5089054;28;20705;-59
2022/07/27 04:34:20;;;;;;;1999.90;999.90;;;12.70;99.90;;;;;;5085166;28;20198;-58
2022/07/27 04:36:48;;;;;;;1999.90;999.90;;;12.70;99.90;;;;;;5086570;28;20201;-58
2022/07/27 04:39:16;;;;;;;1999.90;999.90;;;12.90;99.90;;;;;;5084341;28;20227;-58
2022/07/27 04:41:43;;;;;;;1999.90;999.90;;;12.80;99.90;;;;;;5086915;28;20203;-58
2022/07/27 04:44:10;;;;;;;1999.90;999.90;;;12.90;99.90;;;;;;5074995;28;20202;-58
2022/07/27 04:46:37;;;;;;;1999.90;999.90;;;12.90;99.90;;;;;;5075293;28;20208;-59
2022/07/27 04:49:06;;;;;;;1999.90;999.90;;;12.90;99.90;;;;;;5075315;28;20194;-58
2022/07/27 04:51:34;;;;;;;1999.90;999.90;;;13.00;99.90;;;;;;5075449;28;20534;-59
2022/07/27 04:54:01;;;;;;;1999.90;999.90;;;13.00;99.90;;;;;;5075480;28;20197;-58
2022/07/27 04:56:28;;;;;;;1999.90;999.90;;;13.10;99.90;;;;;;5075195;28;20685;-59
2022/07/27 04:58:56;;;;;;;1999.90;999.90;;;13.10;99.90;;;;;;5075021;28;20547;-59
2022/07/27 05:01:24;;;;;;;1999.90;999.90;;;13.20;99.90;;;;;;5075382;28;20223;-59
2022/07/27 05:03:51;;;;;;;1999.90;999.90;;;13.20;99.90;;;;;;5075403;28;20202;-59
2022/07/27 05:06:20;;;;;;;1999.90;999.90;;;13.30;99.90;;;;;;5075275;28;20199;-58
2022/07/27 05:08:47;;;;;;;1999.90;999.90;;;13.50;99.90;;;;;;5075235;28;20209;-58
2022/07/27 05:11:14;;;;;;;1999.90;999.90;;;13.50;99.90;;;;;;5075326;28;20205;-58
2022/07/27 05:13:41;;;;;;;1999.90;999.90;;;13.60;99.90;;;;;;5074845;28;20745;-58
2022/07/27 05:16:09;;;;;;;1999.90;999.90;;;13.70;99.90;;;;;;5074861;28;20705;-58
2022/07/27 05:18:36;;;;;;;1999.90;999.90;;;13.70;99.90;;;;;;5075131;28;20198;-58
2022/07/27 05:21:04;;;;;;;1999.90;999.90;;;13.90;99.90;;;;;;5074562;28;20695;-58
2022/07/27 05:23:32;;;;;;;1999.90;999.90;;;14.00;99.90;;;;;;5074143;28;20197;-59
2022/07/27 05:25:59;;;;;;;1999.90;999.90;;;14.20;99.90;;;;;;5075022;28;20202;-59
2022/07/27 05:28:26;;;;;;;1999.90;999.90;;;14.60;99.90;;;;;;5074454;28;20573;-59
2022/07/27 05:30:53;;;;;;;1999.90;999.90;;;15.30;99.90;;;;;;5074520;28;20187;-59
2022/07/27 05:33:20;;;;;;;1999.90;999.90;;;15.50;99.90;;;;;;5074896;28;20198;-58
2022/07/27 05:35:48;;;;;;;1999.90;999.90;;;15.70;99.90;;;;;;5074296;28;20560;-59
2022/07/27 05:38:15;;;;;;;1999.90;999.90;;;15.80;99.90;;;;;;5074338;28;20280;-59
2022/07/27 05:40:45;;;;;;;1999.90;999.90;;;16.30;99.90;;;;;;5074628;28;20237;-59
2022/07/27 05:43:12;;;;;;;1999.90;999.90;;;17.00;99.90;;;;;;5074375;28;20202;-59
2022/07/27 05:45:39;;;;;;;1999.90;999.90;;;17.50;99.90;;;;;;5074519;28;20203;-59
2022/07/27 05:48:06;;;;;;;1999.90;999.90;;;17.50;99.90;;;;;;5074483;28;20199;-59
2022/07/27 05:50:33;;;;;;;1999.90;999.90;;;18.10;99.90;;;;;;5074376;28;20199;-59
2022/07/27 05:53:00;;;;;;;1999.90;999.90;;;18.20;99.90;;;;;;5073797;28;20717;-59
2022/07/27 05:55:28;;;;;;;1999.90;999.90;;;18.50;99.90;;;;;;5074273;28;20191;-60
2022/07/27 05:57:56;;;;;;;1999.90;999.90;;;18.40;99.90;;;;;;5073978;28;20202;-59
2022/07/27 06:00:23;;;;;;;1999.90;999.90;;;18.60;99.90;;;;;;5073807;28;20735;-59
2022/07/27 06:02:50;;;;;;;1999.90;999.90;;;18.50;99.90;;;;;;5074028;28;20204;-59
2022/07/27 06:05:17;;;;;;;1999.90;999.90;;;18.10;99.90;;;;;;5074152;28;20202;-59
2022/07/27 06:07:59;;;;;;;1999.90;999.90;;;18.10;99.90;;;;;;5073717;28;20197;-59
2022/07/27 06:10:27;;;;;;;1999.90;999.90;;;18.40;99.90;;;;;;5073703;28;20180;-59
2022/07/27 06:12:55;;;;;;;1999.90;999.90;;;18.80;99.90;;;;;;5074059;28;20201;-59
2022/07/27 06:15:23;;;;;;;1999.90;999.90;;;19.20;99.90;;;;;;5073663;28;20207;-59
2022/07/27 06:17:52;;;;;;;1999.90;999.90;;;19.60;99.90;;;;;;5073627;28;20269;-59
2022/07/27 06:20:20;;;;;;;1999.90;999.90;;;19.90;99.90;;;;;;5073451;28;20199;-59
2022/07/27 06:22:49;;;;;;;1999.90;999.90;;;20.30;99.90;;;;;;5073419;28;21023;-59
2022/07/27 06:25:18;;;;;;;1999.90;999.90;;;20.30;99.90;;;;;;5073455;28;20209;-59
2022/07/27 06:27:45;;;;;;;1999.90;999.90;;;20.70;99.90;;;;;;5073360;28;20197;-59
2022/07/27 06:30:16;;;;;;;1999.90;999.90;;;20.30;15.50;;;;;;5073304;28;20259;-59
2022/07/27 06:32:44;;;;;;;1999.90;999.90;;;20.80;1.00;;;;;;5073583;28;20251;-59
2022/07/27 06:35:13;;;;;;;1999.90;999.90;;;21.00;1.00;;;;;;5073140;28;20247;-59
2022/07/27 06:37:42;;;;;;;1999.90;999.90;;;21.10;99.90;;;;;;5073237;28;20284;-60
2022/07/27 06:40:12;;;;;;;1999.90;999.90;;;21.40;99.90;;;;;;5072960;28;20183;-60
2022/07/27 06:42:39;;;;;;;1999.90;999.90;;;21.50;35.80;;;;;;5073095;28;20575;-60
2022/07/27 06:45:07;;;;;;;1999.90;999.90;;;22.10;66.20;;;;;;5073028;28;20206;-60
2022/07/27 06:47:38;;;;;;;1999.90;999.90;;;22.20;1.00;;;;;;5073327;28;20205;-60
2022/07/27 06:50:06;;;;;;;1999.90;999.90;;;22.20;1.00;;;;;;5073301;28;20183;-60
2022/07/27 06:52:34;;;;;;;1999.90;999.90;;;22.20;1.00;;;;;;5072834;28;20750;-60
2022/07/27 06:55:01;;;;;;;1999.90;999.90;;;21.90;99.90;;;;;;5072869;28;20686;-60
2022/07/27 06:57:28;;;;;;;1999.90;999.90;;;22.10;99.90;;;;;;5073143;28;20206;-60
2022/07/27 06:59:55;;;;;;;1999.90;999.90;;;22.20;99.90;;;;;;5072773;28;20243;-60
2022/07/27 07:02:22;;;;;;;1999.90;999.90;;;22.50;1.00;;;;;;5072708;28;20210;-60
2022/07/27 07:04:50;;;;;;;1999.90;999.90;;;23.10;99.90;;;;;;5073599;28;20601;-60
2022/07/27 07:07:18;;;;;;;1999.90;999.90;;;23.00;1.00;;;;;;5081469;28;20190;-60
2022/07/27 07:09:45;;;;;;;1999.90;999.90;;;23.00;99.90;;;;;;5092742;28;20201;-61
2022/07/27 07:12:12;;;;;;;1999.90;999.90;;;23.10;99.90;;;;;;5092879;28;20191;-61
2022/07/27 07:14:40;;;;;;;1999.90;999.90;;;23.40;99.90;;;;;;5092824;28;20194;-61
2022/07/27 07:17:07;;;;;;;1999.90;999.90;;;23.70;99.90;;;;;;5086636;28;20667;-61
2022/07/27 07:19:34;;;;;;;1999.90;999.90;;;23.80;99.90;;;;;;5092720;28;20663;-60
2022/07/27 07:22:02;;;;;;;1999.90;999.90;;;23.50;1.00;;;;;;5092820;28;20222;-61
2022/07/27 07:24:30;;;;;;;1999.90;999.90;;;23.10;1.00;;;;;;5092584;28;20201;-60
2022/07/27 07:26:57;;;;;;;1999.90;999.90;;;23.00;99.90;;;;;;5092888;28;20198;-60
2022/07/27 07:29:24;;;;;;;1999.90;999.90;;;22.50;1.00;;;;;;5092938;28;20202;-60
2022/07/27 07:31:51;;;;;;;1999.90;999.90;;;21.60;1.00;;;;;;5092855;28;20191;-60
2022/07/27 07:34:18;;;;;;;1999.90;999.90;;;21.20;1.00;;;;;;5092551;28;20202;-60
2022/07/27 07:36:46;;;;;;;1999.90;999.90;;;21.30;1.00;;;;;;5092453;28;20202;-60
2022/07/27 07:39:16;;;;;;;1999.90;999.90;;;22.30;99.90;;;;;;5092384;28;20230;-60
2022/07/27 07:41:43;;;;;;;1999.90;999.90;;;21.70;99.90;;;;;;5092659;28;20218;-60
2022/07/27 07:44:10;;;;;;;1999.90;999.90;;;20.80;99.90;;;;;;5092364;28;20655;-59
2022/07/27 07:46:37;;;;;;;1999.90;999.90;;;20.10;1.00;;;;;;5079104;28;20778;-59
2022/07/27 07:49:05;;;;;;;1999.90;999.90;;;19.80;99.90;;;;;;5071901;28;20207;-60
2022/07/27 07:51:32;;;;;;;1999.90;999.90;;;20.30;1.00;;;;;;5071976;28;20199;-60
2022/07/27 07:53:59;;;;;;;1999.90;999.90;;;21.00;99.90;;;;;;5072101;28;20203;-60
2022/07/27 07:56:27;;;;;;;1999.90;999.90;;;21.10;1.00;;;;;;5071880;28;20195;-60
2022/07/27 07:58:54;;;;;;;1999.90;999.90;;;20.90;1.00;;;;;;5072360;28;20199;-60
2022/07/27 08:01:21;;;;;;;1999.90;999.90;;;20.70;1.00;;;;;;5072241;28;20211;-60
2022/07/27 08:03:51;;;;;;;1999.90;999.90;;;20.40;1.00;;;;;;5072378;28;20199;-60
2022/07/27 08:06:18;;;;;;;1999.90;999.90;;;20.00;1.00;;;;;;5071616;28;20198;-60
2022/07/27 08:08:45;;;;;;;1999.90;999.90;;;19.60;99.90;;;;;;5071709;28;20203;-60
2022/07/27 08:11:12;;;;;;;1999.90;999.90;;;19.20;99.90;;;;;;5072031;28;20198;-60
2022/07/27 08:13:40;;;;;;;1999.90;999.90;;;19.20;1.00;;;;;;5071316;28;20199;-59
2022/07/27 08:16:07;;;;;;;1999.90;999.90;;;19.00;1.00;;;;;;5071994;28;20200;-59
2022/07/27 08:18:35;;;;;;;1999.90;999.90;;;18.80;19.50;;;;;;5072150;28;20250;-59
2022/07/27 08:21:02;;;;;;;1999.90;999.90;;;18.60;1.00;;;;;;5071327;28;20589;-59
2022/07/27 08:23:30;;;;;;;1999.90;999.90;;;18.60;99.90;;;;;;5071920;28;20201;-59
2022/07/27 08:25:57;;;;;;;1999.90;999.90;;;18.70;99.90;;;;;;5071693;28;20207;-60
2022/07/27 08:28:24;;;;;;;1999.90;999.90;;;18.70;1.00;;;;;;5071785;28;20214;-59
2022/07/27 08:30:53;;;;;;;1999.90;999.90;;;18.80;99.90;;;;;;5078360;28;20235;-59
2022/07/27 08:33:20;;;;;;;1999.90;999.90;;;19.00;1.00;;;;;;5091877;28;20205;-59
2022/07/27 08:35:47;;;;;;;1999.90;999.90;;;19.80;99.90;;;;;;5091736;28;20204;-60
2022/07/27 08:38:14;;;;;;;1999.90;999.90;;;20.10;1.00;;;;;;5091571;28;20236;-60
2022/07/27 08:40:42;;;;;;;1999.90;999.90;;;20.00;99.90;;;;;;5091675;28;20673;-60
2022/07/27 08:43:10;;;;;;;1999.90;999.90;;;20.10;99.90;;;;;;5091876;28;20216;-60
2022/07/27 08:45:40;;;;;;;1999.90;999.90;;;20.10;1.00;;;;;;5091574;28;20219;-60
2022/07/27 08:48:12;;;;;;;1999.90;999.90;;;21.10;1.00;;;;;;5091877;28;20201;-60
2022/07/27 08:50:40;;;;;;;1999.90;999.90;;;21.80;99.90;;;;;;5092143;28;20179;-60
2022/07/27 08:53:09;;;;;;;1999.90;999.90;;;21.90;99.90;;;;;;5091930;28;20247;-60
2022/07/27 08:55:38;;;;;;;1999.90;999.90;;;21.80;99.90;;;;;;5091626;28;20201;-60
2022/07/27 08:58:06;;;;;;;1999.90;999.90;;;21.60;99.90;;;;;;5093518;28;20212;-60
2022/07/27 09:00:35;;;;;;;1999.90;999.90;;;22.30;1.00;;;;;;5094720;28;20198;-60
2022/07/27 09:03:02;;;;;;;1999.90;999.90;;;23.40;99.90;;;;;;5094430;28;20702;-60
2022/07/27 09:05:31;;;;;;;1999.90;999.90;;;24.70;99.90;;;;;;5094958;28;20198;-60
2022/07/27 09:08:09;;;;;;;1999.90;999.90;;;25.60;1.00;;;;;;5095031;28;20217;-61
2022/07/27 09:10:38;;;;;;;1999.90;999.90;;;25.60;1.00;;;;;;5095208;28;20554;-61
2022/07/27 09:13:18;;;;;;;1999.90;999.90;;;25.80;99.90;;;;;;5094784;28;20196;-61
2022/07/27 09:15:46;;;;;;;1999.90;999.90;;;25.80;1.00;;;;;;5095059;28;20521;-60
2022/07/27 09:18:21;;;;;;;1999.90;999.90;;;26.10;1.00;;;;;;5094674;28;20700;-60
2022/07/27 09:21:12;;;;;;;1999.90;999.90;;;25.80;1.00;;;;;;5094449;28;20198;-60
2022/07/27 09:23:40;;;;;;;1999.90;999.90;;;24.90;1.00;;;;;;5094817;28;20175;-60
2022/07/27 09:26:16;;;;;;;1999.90;999.90;;;23.80;24.70;;;;;;5095207;28;20194;-60
2022/07/27 09:28:43;;;;;;;1999.90;999.90;;;24.30;99.90;;;;;;5094545;28;20182;-61
2022/07/27 09:31:12;;;;;;;1999.90;999.90;;;25.20;1.00;;;;;;5094766;28;20234;-60
2022/07/27 09:33:44;;;;;;;1999.90;999.90;;;26.20;99.90;;;;;;5094534;28;20194;-60
2022/07/27 09:36:14;;;;;;;1999.90;999.90;;;26.50;1.00;;;;;;5094554;28;20203;-60
2022/07/27 09:38:51;;;;;;;1999.90;999.90;;;26.90;1.00;;;;;;5094487;28;20238;-61
2022/07/27 09:41:18;;;;;;;1999.90;999.90;;;26.60;99.90;;;;;;5094810;28;20182;-61
2022/07/27 09:43:48;;;;;;;1999.90;999.90;;;24.80;1.00;;;;;;5094452;28;20204;-60
2022/07/27 09:46:15;;;;;;;1999.90;999.90;;;23.40;1.00;;;;;;5094532;28;20659;-60
2022/07/27 09:48:42;;;;;;;1999.90;999.90;;;22.60;1.00;;;;;;5094454;28;20194;-59
2022/07/27 09:51:11;;;;;;;1999.90;999.90;;;21.90;1.00;;;;;;5094612;28;20205;-60
2022/07/27 09:53:40;;;;;;;1999.90;999.90;;;22.30;99.90;;;;;;5093989;28;20562;-61
2022/07/27 09:56:09;;;;;;;1999.90;999.90;;;23.80;1.00;;;;;;5093913;28;20694;-60
2022/07/27 09:58:55;;;;;;;1999.90;999.90;;;24.50;1.00;;;;;;5094236;28;20198;-60
2022/07/27 10:01:24;;;;;;;1999.90;999.90;;;25.40;1.00;;;;;;5094460;28;20189;-60
2022/07/27 10:03:54;;;;;;;1999.90;999.90;;;25.60;99.90;;;;;;5094454;28;20198;-60
2022/07/27 10:06:22;;;;;;;1999.90;999.90;;;25.00;99.90;;;;;;5094018;28;20639;-60
2022/07/27 10:08:52;;;;;;;1999.90;999.90;;;25.60;99.90;;;;;;5093346;28;20250;-60
2022/07/27 10:11:21;;;;;;;1999.90;999.90;;;26.30;99.90;;;;;;5093951;28;20181;-60
2022/07/27 10:13:50;;;;;;;1999.90;999.90;;;26.60;1.00;;;;;;5093805;28;20198;-60
2022/07/27 10:16:19;;;;;;;1999.90;999.90;;;26.40;1.00;;;;;;5094162;28;20204;-60
2022/07/27 10:18:55;;;;;;;1999.90;999.90;;;26.50;99.90;;;;;;5093756;28;20202;-60
2022/07/27 10:21:23;;;;;;;1999.90;999.90;;;25.70;99.90;;;;;;5093599;28;20533;-60
2022/07/27 10:24:00;;;;;;;1999.90;999.90;;;25.80;99.90;;;;;;5093613;28;20628;-60
2022/07/27 10:26:35;;;;;;;1999.90;999.90;;;26.20;99.90;;;;;;5093987;28;20182;-60
2022/07/27 10:29:04;;;;;;;1999.90;999.90;;;26.20;99.90;;;;;;5093919;28;20242;-60
2022/07/27 10:31:33;;;;;;;1999.90;999.90;;;26.30;1.00;;;;;;5093544;28;20566;-60
2022/07/27 10:34:02;;;;;;;1999.90;999.90;;;26.70;49.10;;;;;;5093849;28;20195;-60
2022/07/27 10:36:49;;;;;;;1999.90;999.90;;;26.30;99.90;;;;;;5093464;28;20199;-60
2022/07/27 10:39:35;;;;;;;1999.90;999.90;;;26.50;99.90;;;;;;5093202;28;20286;-61
2022/07/27 10:42:26;;;;;;;1999.90;999.90;;;27.20;1.00;;;;;;5093293;28;20198;-61
2022/07/27 10:45:06;;;;;;;1999.90;999.90;;;27.20;1.00;;;;;;5093257;28;20527;-60
2022/07/27 10:47:39;;;;;;;1999.90;999.90;;;27.10;99.90;;;;;;5093641;28;20178;-60
2022/07/27 10:50:29;;;;;;;1999.90;999.90;;;25.40;1.00;;;;;;5089940;28;20193;-60
2022/07/27 10:53:07;;;;;;;1999.90;999.90;;;24.10;1.00;;;;;;5072505;28;20179;-60
2022/07/27 10:55:47;;;;;;;1999.90;999.90;;;23.50;1.00;;;;;;5073286;28;20232;-61
2022/07/27 10:58:43;;;;;;;1999.90;999.90;;;23.30;1.00;;;;;;5072990;28;20183;-60
2022/07/27 11:01:12;;;;;;;1999.90;999.90;;;23.10;1.00;;;;;;5073170;28;20199;-61
2022/07/27 11:03:40;;;;;;;1999.90;999.90;;;22.80;99.90;;;;;;5072644;28;20233;-60
2022/07/27 11:06:09;;;;;;;1999.90;999.90;;;22.70;29.50;;;;;;5073001;28;20202;-61
2022/07/27 11:08:40;;;;;;;1999.90;999.90;;;23.20;1.00;;;;;;5072797;28;20199;-61
2022/07/27 11:11:10;;;;;;;1999.90;999.90;;;24.80;99.90;;;;;;5072654;28;20187;-61
2022/07/27 11:13:37;;;;;;;1999.90;999.90;;;25.20;99.90;;;;;;5072573;28;20195;-61
2022/07/27 11:16:06;;;;;;;1999.90;999.90;;;24.40;1.00;;;;;;5072518;28;20199;-61
2022/07/27 11:18:36;;;;;;;1999.90;999.90;;;23.90;99.90;;;;;;5072540;28;20195;-61
2022/07/27 11:21:20;;;;;;;1999.90;999.90;;;23.60;99.90;;;;;;5071614;28;20249;-60
2022/07/27 11:23:49;;;;;;;1999.90;999.90;;;23.50;99.90;;;;;;5072762;28;20210;-61
2022/07/27 11:26:18;;;;;;;1999.90;999.90;;;23.60;99.90;;;;;;5072454;28;20259;-61
2022/07/27 11:28:45;;;;;;;1999.90;999.90;;;24.10;1.00;;;;;;5072728;28;20202;-61
2022/07/27 11:31:13;;;;;;;1999.90;999.90;;;24.20;99.90;;;;;;5072637;28;20239;-61
2022/07/27 11:33:51;;;;;;;1999.90;999.90;;;25.60;99.90;;;;;;5072625;28;20191;-61
2022/07/27 11:36:19;;;;;;;1999.90;999.90;;;26.60;1.00;;;;;;5072323;28;20202;-61
2022/07/27 11:38:48;;;;;;;1999.90;999.90;;;25.50;99.90;;;;;;5072051;28;20688;-61
2022/07/27 11:41:25;;;;;;;1999.90;999.90;;;23.90;99.90;;;;;;5072513;28;20201;-61
2022/07/27 11:43:52;;;;;;;1999.90;999.90;;;23.00;99.90;;;;;;5072214;28;20205;-61
2022/07/27 11:46:22;;;;;;;1999.90;999.90;;;22.60;99.90;;;;;;5072181;28;20690;-61
2022/07/27 11:48:55;;;;;;;1999.90;999.90;;;22.20;1.00;;;;;;5072781;28;20206;-61
2022/07/27 11:51:23;;;;;;;1999.90;999.90;;;22.20;1.00;;;;;;5072240;28;20195;-61
2022/07/27 11:53:59;;;;;;;1999.90;999.90;;;22.10;1.00;;;;;;5072461;28;20187;-61
2022/07/27 11:56:30;;;;;;;1999.90;999.90;;;21.80;1.00;;;;;;5072437;28;20183;-61
2022/07/27 11:59:07;;;;;;;1999.90;999.90;;;22.00;99.90;;;;;;5074897;28;20185;-61
2022/07/27 12:01:38;;;;;;;1999.90;999.90;;;22.30;1.00;;;;;;5087061;28;20182;-60
2022/07/27 12:04:12;;;;;;;1999.90;999.90;;;22.70;1.00;;;;;;5092130;28;20206;-60
2022/07/27 12:06:42;;;;;;;1999.90;999.90;;;24.00;1.00;;;;;;5092516;28;20190;-60
2022/07/27 12:09:12;;;;;;;1999.90;999.90;;;25.30;99.90;;;;;;5092312;28;20219;-61
2022/07/27 12:11:56;;;;;;;1999.90;999.90;;;26.00;1.00;;;;;;5092436;28;20255;-61